createdAt,value
2023-05-09T00:01:24.851Z,13.46
2023-05-09T00:03:52.504Z,13.41
2023-05-09T00:06:19.954Z,13.40
2023-05-09T00:08:46.745Z,13.35
2023-05-09T00:11:13.716Z,13.36
2023-05-09T00:13:41.991Z,13.38
2023-05-09T00:16:09.498Z,13.41
2023-05-09T00:18:37.613Z,13.42
2023-05-09T00:21:04.568Z,13.42
2023-05-09T00:23:31.236Z,13.42
2023-05-09T00:25:59.322Z,13.40
2023-05-09T00:28:26.047Z,13.42
2023-05-09T00:30:52.739Z,13.44
2023-05-09T00:33:20.519Z,13.61
2023-05-09T00:35:47.521Z,13.47
2023-05-09T00:38:14.202Z,13.49
2023-05-09T00:40:40.922Z,13.49
2023-05-09T00:43:07.687Z,13.49
2023-05-09T00:45:34.697Z,13.45
2023-05-09T00:48:01.584Z,13.48
2023-05-09T00:50:28.472Z,13.50
2023-05-09T00:52:55.762Z,13.51
2023-05-09T00:55:23.739Z,13.43
2023-05-09T00:57:50.465Z,13.45
2023-05-09T01:00:17.960Z,13.45
2023-05-09T01:02:48.345Z,13.49
2023-05-09T01:05:15.793Z,13.54
2023-05-09T01:07:47.955Z,13.53
2023-05-09T01:10:27.088Z,13.54
2023-05-09T01:13:03.424Z,13.46
2023-05-09T01:15:58.652Z,13.31
2023-05-09T01:18:43.527Z,13.24
2023-05-09T01:21:22.030Z,13.41
2023-05-09T01:24:06.406Z,13.45
2023-05-09T01:26:59.399Z,13.46
2023-05-09T01:29:48.130Z,13.49
2023-05-09T01:32:22.500Z,13.58
2023-05-09T01:34:52.907Z,13.57
2023-05-09T01:37:24.844Z,13.51
2023-05-09T01:39:53.934Z,13.50
2023-05-09T01:42:21.540Z,13.55
2023-05-09T01:44:49.533Z,13.56
2023-05-09T01:47:18.321Z,13.59
2023-05-09T01:49:47.807Z,13.60
2023-05-09T01:52:18.707Z,13.62
2023-05-09T01:54:46.576Z,13.66
2023-05-09T01:57:14.716Z,13.71
2023-05-09T01:59:44.189Z,13.68
2023-05-09T02:02:12.354Z,13.71
2023-05-09T02:04:41.734Z,13.76
2023-05-09T02:07:09.590Z,13.77
2023-05-09T02:09:36.383Z,13.78
2023-05-09T02:12:04.796Z,13.77
2023-05-09T02:14:31.881Z,13.74
2023-05-09T02:17:06.413Z,13.69
2023-05-09T02:19:35.570Z,13.65
2023-05-09T02:22:04.978Z,13.63
2023-05-09T02:24:34.483Z,13.63
2023-05-09T02:27:02.891Z,13.65
2023-05-09T02:29:40.814Z,13.66
2023-05-09T02:32:15.455Z,13.67
2023-05-09T02:34:42.519Z,13.68
2023-05-09T02:37:11.048Z,13.69
2023-05-09T02:39:37.794Z,13.70
2023-05-09T02:42:10.329Z,13.68
2023-05-09T02:44:38.957Z,13.68
2023-05-09T02:47:07.363Z,13.67
2023-05-09T02:49:34.603Z,13.68
2023-05-09T02:52:03.248Z,13.65
2023-05-09T02:54:30.103Z,13.68
2023-05-09T02:56:56.922Z,13.67
2023-05-09T02:59:23.657Z,13.68
2023-05-09T03:01:50.921Z,13.71
2023-05-09T03:04:18.280Z,13.69
2023-05-09T03:06:45.233Z,13.73
2023-05-09T03:09:13.086Z,13.71
2023-05-09T03:11:39.816Z,13.70
2023-05-09T03:14:08.538Z,13.73
2023-05-09T03:16:35.383Z,13.71
2023-05-09T03:19:03.977Z,13.69
2023-05-09T03:21:32.235Z,13.69
2023-05-09T03:23:59.311Z,13.68
2023-05-09T03:26:26.729Z,13.69
2023-05-09T03:28:54.725Z,13.70
2023-05-09T03:31:21.568Z,13.71
2023-05-09T03:33:48.599Z,13.72
2023-05-09T03:36:16.067Z,13.69
2023-05-09T03:38:43.693Z,13.70
2023-05-09T03:41:10.716Z,13.69
2023-05-09T03:43:38.006Z,13.68
2023-05-09T03:46:04.719Z,13.65
2023-05-09T03:48:32.120Z,13.63
2023-05-09T03:50:58.993Z,13.63
2023-05-09T03:53:28.371Z,13.62
2023-05-09T03:55:55.297Z,13.60
2023-05-09T03:58:22.841Z,13.61
2023-05-09T04:00:49.572Z,13.63
2023-05-09T04:03:21.295Z,13.67
2023-05-09T04:05:50.159Z,13.68
2023-05-09T04:08:40.092Z,13.73
2023-05-09T04:11:07.441Z,13.73
2023-05-09T04:13:36.247Z,13.74
2023-05-09T04:16:09.219Z,13.77
2023-05-09T04:18:36.673Z,13.74
2023-05-09T04:21:03.409Z,13.72
2023-05-09T04:23:30.260Z,13.69
2023-05-09T04:25:58.930Z,13.69
2023-05-09T04:28:26.304Z,13.68
2023-05-09T04:30:53.406Z,13.70
2023-05-09T04:33:21.452Z,13.71
2023-05-09T04:35:49.392Z,13.72
2023-05-09T04:38:16.874Z,13.78
2023-05-09T04:40:43.765Z,13.78
2023-05-09T04:43:10.891Z,13.75
2023-05-09T04:45:37.597Z,13.75
2023-05-09T04:48:04.533Z,13.72
2023-05-09T04:50:31.454Z,13.71
2023-05-09T04:52:58.139Z,13.77
2023-05-09T04:55:24.902Z,13.81
2023-05-09T04:57:51.698Z,13.84
2023-05-09T05:00:19.555Z,13.85
2023-05-09T05:02:48.027Z,13.86
2023-05-09T05:05:14.735Z,13.83
2023-05-09T05:07:43.099Z,13.84
2023-05-09T05:10:12.301Z,13.86
2023-05-09T05:12:41.315Z,13.87
2023-05-09T05:15:11.415Z,13.89
2023-05-09T05:17:39.254Z,13.95
2023-05-09T05:20:10.748Z,13.94
2023-05-09T05:22:42.195Z,13.93
2023-05-09T05:25:09.525Z,13.96
2023-05-09T05:27:37.792Z,14.01
2023-05-09T05:30:05.563Z,14.06
2023-05-09T05:32:32.458Z,14.09
2023-05-09T05:34:59.311Z,14.14
2023-05-09T05:37:26.219Z,14.29
2023-05-09T05:39:53.195Z,14.27
2023-05-09T05:42:20.383Z,14.28
2023-05-09T05:44:47.302Z,14.30
2023-05-09T05:47:14.628Z,14.37
2023-05-09T05:49:42.119Z,14.45
2023-05-09T05:52:09.735Z,14.39
2023-05-09T05:54:37.094Z,14.44
2023-05-09T05:57:03.847Z,14.46
2023-05-09T05:59:30.873Z,14.48
2023-05-09T06:01:57.839Z,14.52
2023-05-09T06:04:25.105Z,14.58
2023-05-09T06:06:51.890Z,14.63
2023-05-09T06:09:18.812Z,14.53
2023-05-09T06:11:45.479Z,14.58
2023-05-09T06:14:12.211Z,14.67
2023-05-09T06:16:39.330Z,14.67
2023-05-09T06:19:06.060Z,14.68
2023-05-09T06:21:34.401Z,14.66
2023-05-09T06:24:09.741Z,14.80
2023-05-09T06:26:39.277Z,14.74
2023-05-09T06:29:08.933Z,14.79
2023-05-09T06:31:39.375Z,14.90
2023-05-09T06:34:06.465Z,14.97
2023-05-09T06:36:33.625Z,15.06
2023-05-09T06:39:00.879Z,15.27
2023-05-09T06:41:27.691Z,15.18
2023-05-09T06:43:54.323Z,15.13
2023-05-09T06:46:21.319Z,15.26
2023-05-09T06:48:48.012Z,15.31
2023-05-09T06:51:14.755Z,15.37
2023-05-09T06:53:41.495Z,15.48
2023-05-09T06:56:08.214Z,15.82
2023-05-09T06:58:35.138Z,16.15
2023-05-09T07:01:01.976Z,16.69
2023-05-09T07:03:28.671Z,16.23
2023-05-09T07:05:57.399Z,16.01
2023-05-09T07:08:24.039Z,16.49
2023-05-09T07:10:51.040Z,16.47
2023-05-09T07:13:18.010Z,16.09
2023-05-09T07:15:44.906Z,16.24
2023-05-09T07:18:11.793Z,16.12
2023-05-09T07:20:38.586Z,16.24
2023-05-09T07:23:06.222Z,16.47
2023-05-09T07:25:33.168Z,16.37
2023-05-09T07:27:59.937Z,16.26
2023-05-09T07:30:26.779Z,16.33
2023-05-09T07:32:53.573Z,16.36
2023-05-09T07:35:20.611Z,16.41
2023-05-09T07:37:47.337Z,16.39
2023-05-09T07:40:14.838Z,16.52
2023-05-09T07:42:45.261Z,16.49
2023-05-09T07:45:12.155Z,17.00
2023-05-09T07:47:38.897Z,16.99
2023-05-09T07:50:06.492Z,16.72
2023-05-09T07:52:33.333Z,16.74
2023-05-09T07:55:00.163Z,16.79
2023-05-09T07:57:26.978Z,16.67
2023-05-09T07:59:53.600Z,16.96
2023-05-09T08:02:20.321Z,16.88
2023-05-09T08:04:49.224Z,16.86
2023-05-09T08:07:16.440Z,17.00
2023-05-09T08:09:43.239Z,16.79
2023-05-09T08:12:13.024Z,16.87
2023-05-09T08:14:39.743Z,16.85
2023-05-09T08:17:06.415Z,17.13
2023-05-09T08:19:33.144Z,17.18
2023-05-09T08:22:00.756Z,16.97
2023-05-09T08:24:27.424Z,16.92
2023-05-09T08:26:54.081Z,17.21
2023-05-09T08:29:20.877Z,17.22
2023-05-09T08:31:47.683Z,17.48
2023-05-09T08:34:14.438Z,17.36
2023-05-09T08:36:41.344Z,17.40
2023-05-09T08:39:09.730Z,17.57
2023-05-09T08:41:37.115Z,17.89
2023-05-09T08:44:04.842Z,17.90
2023-05-09T08:46:36.627Z,17.55
2023-05-09T08:49:07.490Z,17.44
2023-05-09T08:51:35.996Z,17.56
2023-05-09T08:54:03.410Z,17.62
2023-05-09T08:56:34.892Z,17.57
2023-05-09T08:59:01.606Z,17.37
2023-05-09T09:01:29.328Z,17.39
2023-05-09T09:03:56.554Z,17.37
2023-05-09T09:06:25.885Z,17.43
2023-05-09T09:08:55.243Z,17.45
2023-05-09T09:11:22.921Z,17.59
2023-05-09T09:13:52.819Z,17.67
2023-05-09T09:16:21.406Z,17.72
2023-05-09T09:18:48.586Z,17.76
2023-05-09T09:21:19.606Z,17.56
2023-05-09T09:23:47.729Z,17.84
2023-05-09T09:26:15.094Z,17.70
2023-05-09T09:28:42.654Z,17.71
2023-05-09T09:31:21.402Z,17.80
2023-05-09T09:33:48.857Z,17.52
2023-05-09T09:36:15.724Z,17.45
2023-05-09T09:38:46.497Z,17.47
2023-05-09T09:41:13.498Z,17.76
2023-05-09T09:43:45.941Z,17.55
2023-05-09T09:46:16.559Z,17.81
2023-05-09T09:48:52.928Z,17.55
2023-05-09T09:51:20.299Z,17.65
2023-05-09T09:53:47.435Z,17.98
2023-05-09T09:56:14.234Z,18.23
2023-05-09T09:58:40.996Z,17.63
2023-05-09T10:01:09.602Z,17.97
2023-05-09T10:03:38.120Z,17.99
2023-05-09T10:06:05.699Z,17.98
2023-05-09T10:08:32.420Z,17.98
2023-05-09T10:11:00.069Z,18.22
2023-05-09T10:13:27.933Z,18.38
2023-05-09T10:15:58.192Z,18.71
2023-05-09T10:18:31.281Z,19.01
2023-05-09T10:21:04.015Z,18.73
2023-05-09T10:23:32.092Z,18.63
2023-05-09T10:26:07.640Z,18.49
2023-05-09T10:28:37.862Z,18.77
2023-05-09T10:31:26.159Z,18.39
2023-05-09T10:33:54.544Z,17.82
2023-05-09T10:36:26.151Z,17.71
2023-05-09T10:38:56.485Z,17.89
2023-05-09T10:41:24.289Z,17.49
2023-05-09T10:43:51.421Z,17.83
2023-05-09T10:46:18.514Z,18.04
2023-05-09T10:48:45.909Z,17.88
2023-05-09T10:51:13.324Z,18.04
2023-05-09T10:53:50.577Z,18.10
2023-05-09T10:56:30.472Z,17.69
2023-05-09T10:58:57.973Z,17.89
2023-05-09T11:01:39.634Z,18.08
2023-05-09T11:04:17.326Z,18.63
2023-05-09T11:06:52.345Z,18.77
2023-05-09T11:09:38.247Z,18.77
2023-05-09T11:12:05.076Z,17.90
2023-05-09T11:14:39.763Z,18.71
2023-05-09T11:17:11.340Z,18.63
2023-05-09T11:19:39.438Z,18.63
2023-05-09T11:22:16.536Z,19.07
2023-05-09T11:24:47.694Z,19.30
2023-05-09T11:27:21.869Z,18.74
2023-05-09T11:29:54.179Z,18.28
2023-05-09T11:32:23.363Z,19.02
2023-05-09T11:34:50.176Z,18.71
2023-05-09T11:37:20.538Z,18.96
2023-05-09T11:40:01.159Z,19.41
2023-05-09T11:42:28.796Z,20.29
2023-05-09T11:44:57.167Z,19.04
2023-05-09T11:47:24.758Z,20.00
2023-05-09T11:49:52.010Z,19.68
2023-05-09T11:52:19.710Z,20.92
2023-05-09T11:54:46.447Z,20.93
2023-05-09T11:57:17.513Z,19.90
2023-05-09T11:59:45.678Z,19.32
2023-05-09T12:02:13.700Z,19.17
2023-05-09T12:04:40.786Z,19.94
2023-05-09T12:07:07.718Z,19.16
2023-05-09T12:09:38.879Z,19.61
2023-05-09T12:12:12.882Z,19.49
2023-05-09T12:14:40.428Z,19.83
2023-05-09T12:17:08.271Z,19.71
2023-05-09T12:19:35.698Z,19.93
2023-05-09T12:22:06.943Z,19.77
2023-05-09T12:24:36.853Z,19.17
2023-05-09T12:27:05.019Z,19.06
2023-05-09T12:29:31.865Z,19.54
2023-05-09T12:32:00.718Z,19.44
2023-05-09T12:34:27.644Z,19.66
2023-05-09T12:36:54.342Z,19.54
2023-05-09T12:39:23.183Z,19.51
2023-05-09T12:42:01.007Z,19.33
2023-05-09T12:44:30.175Z,19.85
2023-05-09T12:47:04.842Z,20.30
2023-05-09T12:49:32.733Z,20.15
2023-05-09T12:52:03.016Z,20.43
2023-05-09T12:54:31.336Z,19.48
2023-05-09T12:56:58.767Z,20.02
2023-05-09T12:59:27.209Z,19.99
2023-05-09T13:01:54.762Z,20.38
2023-05-09T13:04:22.197Z,18.89
2023-05-09T13:06:54.092Z,18.89
2023-05-09T13:09:21.063Z,19.15
2023-05-09T13:11:48.015Z,19.15
2023-05-09T13:14:15.171Z,18.78
2023-05-09T13:16:42.201Z,18.60
2023-05-09T13:19:08.991Z,18.50
2023-05-09T13:21:36.324Z,18.65
2023-05-09T13:24:04.400Z,18.88
2023-05-09T13:26:31.535Z,18.89
2023-05-09T13:28:58.409Z,19.26
2023-05-09T13:31:25.390Z,18.80
2023-05-09T13:33:52.482Z,19.05
2023-05-09T13:36:19.386Z,18.99
2023-05-09T13:38:46.260Z,18.76
2023-05-09T13:41:13.924Z,19.04
2023-05-09T13:43:43.302Z,18.81
2023-05-09T13:46:09.984Z,18.83
2023-05-09T13:48:36.739Z,18.49
2023-05-09T13:51:03.885Z,18.45
2023-05-09T13:53:30.708Z,18.37
2023-05-09T13:55:57.433Z,18.40
2023-05-09T13:58:24.301Z,18.20
2023-05-09T14:00:51.696Z,18.32
2023-05-09T14:03:18.439Z,18.44
2023-05-09T14:05:45.333Z,18.47
2023-05-09T14:08:12.400Z,18.14
2023-05-09T14:10:39.064Z,18.11
2023-05-09T14:13:08.577Z,18.11
2023-05-09T14:15:35.636Z,18.34
2023-05-09T14:18:02.437Z,18.53
2023-05-09T14:20:29.284Z,18.52
2023-05-09T14:22:59.830Z,18.16
2023-05-09T14:25:26.955Z,17.97
2023-05-09T14:27:54.228Z,17.97
2023-05-09T14:30:20.935Z,17.97
2023-05-09T14:32:48.084Z,18.26
2023-05-09T14:35:14.929Z,17.98
2023-05-09T14:37:41.804Z,17.75
2023-05-09T14:40:09.832Z,18.08
2023-05-09T14:42:37.190Z,18.21
2023-05-09T14:45:05.249Z,17.96
2023-05-09T14:47:32.119Z,17.82
2023-05-09T14:49:58.913Z,17.69
2023-05-09T14:52:25.616Z,17.63
2023-05-09T14:54:52.438Z,17.51
2023-05-09T14:57:19.488Z,17.42
2023-05-09T14:59:46.171Z,17.42
2023-05-09T15:02:12.860Z,17.36
2023-05-09T15:04:41.480Z,17.36
2023-05-09T15:07:08.582Z,17.33
2023-05-09T15:09:35.270Z,17.44
2023-05-09T15:12:01.969Z,17.31
2023-05-09T15:14:28.844Z,17.32
2023-05-09T15:16:59.236Z,17.27
2023-05-09T15:19:26.539Z,17.24
2023-05-09T15:21:53.303Z,17.23
2023-05-09T15:24:19.985Z,17.07
2023-05-09T15:26:46.687Z,17.04
2023-05-09T15:29:13.387Z,16.99
2023-05-09T15:31:40.093Z,16.99
2023-05-09T15:34:06.852Z,17.01
2023-05-09T15:36:36.130Z,17.15
2023-05-09T15:39:02.775Z,17.30
2023-05-09T15:41:29.947Z,17.13
2023-05-09T15:43:56.670Z,17.14
2023-05-09T15:46:23.748Z,17.19
2023-05-09T15:48:50.818Z,17.12
2023-05-09T15:51:17.528Z,17.17
2023-05-09T15:53:44.381Z,17.27
2023-05-09T15:56:11.320Z,17.15
2023-05-09T15:58:39.042Z,17.17
2023-05-09T16:01:08.102Z,17.20
2023-05-09T16:03:35.060Z,17.18
2023-05-09T16:06:02.034Z,17.23
2023-05-09T16:08:28.753Z,17.36
2023-05-09T16:10:55.431Z,17.20
2023-05-09T16:13:22.590Z,17.02
2023-05-09T16:15:50.370Z,17.02
2023-05-09T16:18:17.108Z,16.84
2023-05-09T16:20:44.258Z,16.79
2023-05-09T16:23:11.674Z,16.84
2023-05-09T16:25:38.689Z,17.14
2023-05-09T16:28:07.313Z,17.21
2023-05-09T16:30:34.397Z,17.09
2023-05-09T16:33:01.175Z,17.18
2023-05-09T16:35:28.106Z,17.14
2023-05-09T16:37:54.787Z,17.20
2023-05-09T16:40:21.754Z,17.09
2023-05-09T16:42:48.492Z,17.14
2023-05-09T16:45:15.193Z,17.17
2023-05-09T16:47:41.845Z,17.02
2023-05-09T16:50:10.554Z,17.03
2023-05-09T16:52:37.397Z,17.04
2023-05-09T16:55:04.438Z,16.96
2023-05-09T16:57:31.145Z,16.75
2023-05-09T16:59:58.612Z,16.67
2023-05-09T17:02:25.522Z,16.67
2023-05-09T17:04:52.768Z,16.78
2023-05-09T17:07:19.544Z,16.84
2023-05-09T17:09:46.459Z,16.93
2023-05-09T17:12:17.647Z,17.04
2023-05-09T17:14:45.687Z,17.06
2023-05-09T17:17:13.269Z,17.03
2023-05-09T17:19:40.067Z,16.95
2023-05-09T17:22:08.134Z,16.96
2023-05-09T17:24:34.930Z,16.99
2023-05-09T17:27:02.144Z,16.94
2023-05-09T17:29:30.763Z,16.89
2023-05-09T17:31:58.508Z,16.85
2023-05-09T17:34:25.305Z,16.82
2023-05-09T17:36:52.481Z,16.88
2023-05-09T17:39:19.891Z,16.73
2023-05-09T17:41:46.759Z,16.32
2023-05-09T17:44:13.721Z,16.20
2023-05-09T17:46:41.353Z,16.23
2023-05-09T17:49:10.335Z,16.12
2023-05-09T17:51:37.245Z,16.15
2023-05-09T17:54:04.229Z,16.14
2023-05-09T17:56:31.484Z,16.13
2023-05-09T17:58:59.675Z,15.87
2023-05-09T18:01:26.777Z,15.84
2023-05-09T18:03:54.179Z,15.94
2023-05-09T18:06:21.030Z,15.91
2023-05-09T18:08:47.773Z,15.84
2023-05-09T18:11:14.860Z,15.72
2023-05-09T18:13:41.565Z,15.94
2023-05-09T18:16:08.399Z,15.63
2023-05-09T18:18:36.636Z,15.58
2023-05-09T18:21:05.114Z,15.63
2023-05-09T18:23:31.876Z,15.58
2023-05-09T18:25:58.656Z,15.39
2023-05-09T18:28:25.796Z,15.42
2023-05-09T18:30:54.926Z,15.48
2023-05-09T18:33:27.705Z,15.34
2023-05-09T18:35:55.170Z,15.36
2023-05-09T18:38:22.904Z,15.50
2023-05-09T18:40:51.829Z,15.60
2023-05-09T18:43:20.985Z,15.41
2023-05-09T18:45:48.219Z,15.38
2023-05-09T18:48:16.160Z,15.26
2023-05-09T18:50:42.882Z,15.22
2023-05-09T18:53:09.590Z,15.26
2023-05-09T18:55:36.312Z,15.20
2023-05-09T18:58:02.990Z,15.15
2023-05-09T19:00:29.693Z,15.18
2023-05-09T19:02:56.475Z,15.18
2023-05-09T19:05:23.257Z,15.05
2023-05-09T19:07:50.008Z,15.02
2023-05-09T19:10:18.582Z,15.03
2023-05-09T19:12:46.301Z,14.97
2023-05-09T19:15:13.120Z,14.92
2023-05-09T19:17:39.846Z,14.78
2023-05-09T19:20:08.309Z,14.96
2023-05-09T19:22:36.868Z,14.93
2023-05-09T19:25:04.571Z,14.89
2023-05-09T19:27:31.610Z,14.97
2023-05-09T19:29:59.996Z,14.78
2023-05-09T19:32:28.101Z,14.74
2023-05-09T19:34:55.424Z,14.71
2023-05-09T19:37:23.068Z,14.66
2023-05-09T19:39:50.325Z,14.54
2023-05-09T19:42:17.853Z,14.44
2023-05-09T19:44:45.114Z,14.43
2023-05-09T19:47:12.112Z,14.38
2023-05-09T19:49:40.592Z,14.43
2023-05-09T19:52:07.559Z,14.49
2023-05-09T19:54:34.358Z,14.45
2023-05-09T19:57:02.229Z,14.41
2023-05-09T19:59:29.311Z,14.50
2023-05-09T20:01:56.181Z,14.44
2023-05-09T20:04:24.264Z,14.54
2023-05-09T20:06:51.556Z,14.67
2023-05-09T20:09:21.151Z,14.56
2023-05-09T20:11:48.614Z,14.64
2023-05-09T20:14:15.815Z,14.53
2023-05-09T20:16:44.145Z,14.51
2023-05-09T20:19:14.601Z,14.51
2023-05-09T20:21:41.506Z,14.47
2023-05-09T20:24:09.049Z,14.54
2023-05-09T20:26:36.044Z,14.50
2023-05-09T20:29:02.825Z,14.43
2023-05-09T20:31:29.743Z,14.43
2023-05-09T20:33:58.000Z,14.40
2023-05-09T20:36:25.433Z,14.41
2023-05-09T20:38:52.327Z,14.43
2023-05-09T20:41:19.147Z,14.50
2023-05-09T20:43:45.910Z,14.54
2023-05-09T20:46:13.288Z,14.57
2023-05-09T20:48:40.075Z,14.57
2023-05-09T20:51:06.773Z,14.52
2023-05-09T20:53:35.112Z,14.49
2023-05-09T20:56:02.224Z,14.53
2023-05-09T20:58:32.819Z,14.52
2023-05-09T21:00:59.613Z,14.54
2023-05-09T21:03:26.657Z,14.57
2023-05-09T21:05:54.085Z,14.54
2023-05-09T21:08:20.886Z,14.53
2023-05-09T21:10:47.635Z,14.50
2023-05-09T21:13:14.397Z,14.51
2023-05-09T21:15:41.280Z,14.51
2023-05-09T21:18:08.158Z,14.50
2023-05-09T21:20:34.972Z,14.53
2023-05-09T21:23:01.663Z,14.51
2023-05-09T21:25:28.308Z,14.52
2023-05-09T21:27:55.016Z,14.33
2023-05-09T21:30:21.906Z,14.39
2023-05-09T21:32:50.953Z,14.36
2023-05-09T21:35:17.675Z,14.50
2023-05-09T21:37:45.828Z,14.43
2023-05-09T21:40:13.043Z,14.40
2023-05-09T21:42:41.334Z,14.33
2023-05-09T21:45:08.499Z,14.21
2023-05-09T21:47:35.667Z,14.24
2023-05-09T21:50:04.284Z,14.12
2023-05-09T21:52:30.957Z,14.31
2023-05-09T21:54:58.531Z,14.15
2023-05-09T21:57:25.356Z,14.22
2023-05-09T21:59:52.071Z,14.20
2023-05-09T22:02:18.789Z,14.04
2023-05-09T22:04:46.043Z,14.15
2023-05-09T22:07:12.966Z,14.05
2023-05-09T22:09:39.657Z,14.03
2023-05-09T22:12:06.461Z,13.89
2023-05-09T22:14:37.165Z,13.96
2023-05-09T22:17:08.937Z,14.05
2023-05-09T22:19:35.882Z,13.99
2023-05-09T22:22:02.572Z,13.94
2023-05-09T22:24:29.224Z,13.80
2023-05-09T22:26:55.942Z,13.75
2023-05-09T22:29:22.672Z,13.70
2023-05-09T22:31:49.389Z,13.94
2023-05-09T22:34:16.756Z,13.85
2023-05-09T22:36:43.437Z,13.97
2023-05-09T22:39:11.246Z,13.94
2023-05-09T22:41:37.952Z,13.88
2023-05-09T22:44:04.708Z,13.94
2023-05-09T22:46:31.749Z,13.98
2023-05-09T22:48:58.474Z,13.89
2023-05-09T22:51:25.163Z,13.99
2023-05-09T22:53:51.948Z,13.91
2023-05-09T22:56:18.658Z,13.81
2023-05-09T22:58:45.371Z,13.75
2023-05-09T23:01:12.055Z,13.75
2023-05-09T23:03:38.813Z,13.74
2023-05-09T23:06:06.655Z,13.70
2023-05-09T23:08:34.229Z,13.80
2023-05-09T23:11:01.487Z,13.75
2023-05-09T23:13:28.452Z,13.61
2023-05-09T23:15:55.247Z,13.51
2023-05-09T23:18:23.945Z,13.48
2023-05-09T23:20:50.817Z,13.73
2023-05-09T23:23:17.826Z,13.70
2023-05-09T23:25:44.710Z,13.55
2023-05-09T23:28:11.544Z,13.54
2023-05-09T23:30:38.246Z,13.37
2023-05-09T23:33:04.925Z,13.30
2023-05-09T23:35:32.244Z,13.42
2023-05-09T23:37:59.027Z,13.32
2023-05-09T23:40:25.788Z,13.28
2023-05-09T23:42:52.478Z,13.27
2023-05-09T23:45:19.264Z,13.22
2023-05-09T23:47:46.010Z,13.23
2023-05-09T23:50:13.762Z,13.26
2023-05-09T23:52:41.987Z,13.20
2023-05-09T23:55:09.503Z,13.17
2023-05-09T23:57:36.253Z,13.21
